Terminal Aerodrome Forecast
Issued by NWS Detroit/Pontiac, MI

Home | Current Version | Previous Version | Text Only | Print | Product List | Glossary On
Versions: 1 2 3 4 5 6 7 8 9 10 11 12 13 14
000
FTUS43 KDTX 211731
TAFFNT
TAF
KFNT 211731Z 2118/2218 18008KT P6SM SCT030 OVC050
     FM220000 15006KT P6SM SCT050
     FM220800 14005KT 5SM BR SCT020
     FM221500 14007KT P6SM FEW020 SCT200=

USA.gov is the U.S. government's official web portal to all federal, state and local government web resources and services.